sensor_id;sensor_type;location;lat;lon;timestamp;P1;durP1;ratioP1;P2;durP2;ratioP2
51194;SDS011;37259;49.972;19.850;2024-03-29T00:00:16;4.3;;;1.7;;
51194;SDS011;37259;49.972;19.850;2024-03-29T00:01:16;4.3;;;1.7;;
51194;SDS011;37259;49.972;19.850;2024-03-29T00:02:16;4.3;;;1.7;;
51194;SDS011;37259;49.972;19.850;2024-03-29T00:03:16;4.3;;;1.7;;
51194;SDS011;37259;49.972;19.850;2024-03-29T00:04:16;4.3;;;1.7;;
51194;SDS011;37259;49.972;19.850;2024-03-29T00:05:16;4.3;;;1.7;;
51194;SDS011;37259;49.972;19.850;2024-03-29T00:06:16;4.3;;;1.7;;
51194;SDS011;37259;49.972;19.850;2024-03-29T00:07:16;4.3;;;1.7;;
51194;SDS011;37259;49.972;19.850;2024-03-29T00:08:16;4.3;;;1.7;;
51194;SDS011;37259;49.972;19.850;2024-03-29T00:09:16;4.3;;;1.7;;
51194;SDS011;37259;49.972;19.850;2024-03-29T00:10:16;4.3;;;1.7;;
51194;SDS011;37259;49.972;19.850;2024-03-29T00:11:16;4.3;;;1.7;;
51194;SDS011;37259;49.972;19.850;2024-03-29T00:12:16;4.3;;;1.7;;
51194;SDS011;37259;49.972;19.850;2024-03-29T00:13:16;4.3;;;1.7;;
51194;SDS011;37259;49.972;19.850;2024-03-29T00:14:16;4.3;;;1.7;;
51194;SDS011;37259;49.972;19.850;2024-03-29T00:15:16;4.3;;;1.7;;
51194;SDS011;37259;49.972;19.850;2024-03-29T00:16:16;4.3;;;1.7;;
51194;SDS011;37259;49.972;19.850;2024-03-29T00:17:16;4.3;;;1.7;;
51194;SDS011;37259;49.972;19.850;2024-03-29T00:18:16;4.1;;;1.9;;
51194;SDS011;37259;49.972;19.850;2024-03-29T00:19:16;4.1;;;1.9;;
51194;SDS011;37259;49.972;19.850;2024-03-29T00:20:17;4.1;;;1.9;;
51194;SDS011;37259;49.972;19.850;2024-03-29T00:21:17;4.1;;;1.9;;
51194;SDS011;37259;49.972;19.850;2024-03-29T00:22:16;4.1;;;1.9;;
51194;SDS011;37259;49.972;19.850;2024-03-29T00:23:16;4.1;;;1.9;;
51194;SDS011;37259;49.972;19.850;2024-03-29T00:24:16;4.1;;;1.9;;
51194;SDS011;37259;49.972;19.850;2024-03-29T00:25:16;4.1;;;1.9;;
51194;SDS011;37259;49.972;19.850;2024-03-29T00:26:17;4.1;;;1.9;;
51194;SDS011;37259;49.972;19.850;2024-03-29T00:27:16;4.1;;;1.9;;
51194;SDS011;37259;49.972;19.850;2024-03-29T00:28:16;4.1;;;1.9;;
51194;SDS011;37259;49.972;19.850;2024-03-29T00:29:16;4.1;;;1.9;;
51194;SDS011;37259;49.972;19.850;2024-03-29T00:30:16;4.1;;;1.9;;
51194;SDS011;37259;49.972;19.850;2024-03-29T00:31:16;4.1;;;1.9;;
51194;SDS011;37259;49.972;19.850;2024-03-29T00:32:16;4.1;;;1.9;;
51194;SDS011;37259;49.972;19.850;2024-03-29T00:33:16;4.1;;;1.9;;
51194;SDS011;37259;49.972;19.850;2024-03-29T00:34:16;4.1;;;1.9;;
51194;SDS011;37259;49.972;19.850;2024-03-29T00:35:16;4.1;;;1.9;;
51194;SDS011;37259;49.972;19.850;2024-03-29T00:36:16;4.1;;;1.9;;
51194;SDS011;37259;49.972;19.850;2024-03-29T00:37:17;4.1;;;1.9;;
51194;SDS011;37259;49.972;19.850;2024-03-29T00:38:16;4.1;;;1.9;;
51194;SDS011;37259;49.972;19.850;2024-03-29T00:39:16;4.1;;;1.9;;
51194;SDS011;37259;49.972;19.850;2024-03-29T00:40:16;4.1;;;1.9;;
51194;SDS011;37259;49.972;19.850;2024-03-29T00:41:16;4.1;;;1.9;;
51194;SDS011;37259;49.972;19.850;2024-03-29T00:42:16;4.1;;;1.9;;
51194;SDS011;37259;49.972;19.850;2024-03-29T00:43:16;4.1;;;1.9;;
51194;SDS011;37259;49.972;19.850;2024-03-29T00:44:16;4.1;;;1.9;;
51194;SDS011;37259;49.972;19.850;2024-03-29T00:45:16;4.1;;;1.9;;
51194;SDS011;37259;49.972;19.850;2024-03-29T00:46:16;4.1;;;1.9;;
51194;SDS011;37259;49.972;19.850;2024-03-29T00:47:16;4.1;;;1.9;;
51194;SDS011;37259;49.972;19.850;2024-03-29T00:48:17;3.2;;;1.7;;
51194;SDS011;37259;49.972;19.850;2024-03-29T00:49:16;3.2;;;1.7;;
51194;SDS011;37259;49.972;19.850;2024-03-29T00:50:16;3.2;;;1.7;;
51194;SDS011;37259;49.972;19.850;2024-03-29T00:51:16;3.2;;;1.7;;
51194;SDS011;37259;49.972;19.850;2024-03-29T00:52:16;3.2;;;1.7;;
51194;SDS011;37259;49.972;19.850;2024-03-29T00:53:17;3.2;;;1.7;;
51194;SDS011;37259;49.972;19.850;2024-03-29T00:54:16;3.2;;;1.7;;
51194;SDS011;37259;49.972;19.850;2024-03-29T00:55:17;3.2;;;1.7;;
51194;SDS011;37259;49.972;19.850;2024-03-29T00:56:16;3.2;;;1.7;;
51194;SDS011;37259;49.972;19.850;2024-03-29T00:57:16;3.2;;;1.7;;
51194;SDS011;37259;49.972;19.850;2024-03-29T00:58:17;3.2;;;1.7;;
51194;SDS011;37259;49.972;19.850;2024-03-29T00:59:16;3.2;;;1.7;;
51194;SDS011;37259;49.972;19.850;2024-03-29T01:00:16;3.2;;;1.7;;
51194;SDS011;37259;49.972;19.850;2024-03-29T01:01:16;3.2;;;1.7;;
51194;SDS011;37259;49.972;19.850;2024-03-29T01:02:16;3.2;;;1.7;;
51194;SDS011;37259;49.972;19.850;2024-03-29T01:03:16;3.2;;;1.7;;
51194;SDS011;37259;49.972;19.850;2024-03-29T01:04:17;3.2;;;1.7;;
51194;SDS011;37259;49.972;19.850;2024-03-29T01:05:16;3.2;;;1.7;;
51194;SDS011;37259;49.972;19.850;2024-03-29T01:06:16;3.2;;;1.7;;
51194;SDS011;37259;49.972;19.850;2024-03-29T01:07:17;3.2;;;1.7;;
51194;SDS011;37259;49.972;19.850;2024-03-29T01:08:16;3.2;;;1.7;;
51194;SDS011;37259;49.972;19.850;2024-03-29T01:09:16;3.2;;;1.7;;
51194;SDS011;37259;49.972;19.850;2024-03-29T01:10:17;3.2;;;1.7;;
51194;SDS011;37259;49.972;19.850;2024-03-29T01:11:16;3.2;;;1.7;;
51194;SDS011;37259;49.972;19.850;2024-03-29T01:12:16;3.2;;;1.7;;
51194;SDS011;37259;49.972;19.850;2024-03-29T01:13:16;3.2;;;1.7;;
51194;SDS011;37259;49.972;19.850;2024-03-29T01:14:16;3.2;;;1.7;;
51194;SDS011;37259;49.972;19.850;2024-03-29T01:15:16;3.2;;;1.7;;
51194;SDS011;37259;49.972;19.850;2024-03-29T01:16:16;3.2;;;1.7;;
51194;SDS011;37259;49.972;19.850;2024-03-29T01:17:16;3.2;;;1.7;;
51194;SDS011;37259;49.972;19.850;2024-03-29T01:18:16;4.4;;;2;;
51194;SDS011;37259;49.972;19.850;2024-03-29T01:19:16;4.4;;;2;;
51194;SDS011;37259;49.972;19.850;2024-03-29T01:20:16;4.4;;;2;;
51194;SDS011;37259;49.972;19.850;2024-03-29T01:21:16;4.4;;;2;;
51194;SDS011;37259;49.972;19.850;2024-03-29T01:22:16;4.4;;;2;;
51194;SDS011;37259;49.972;19.850;2024-03-29T01:23:16;4.4;;;2;;
51194;SDS011;37259;49.972;19.850;2024-03-29T01:24:17;4.4;;;2;;
51194;SDS011;37259;49.972;19.850;2024-03-29T01:25:16;4.4;;;2;;
51194;SDS011;37259;49.972;19.850;2024-03-29T01:26:16;4.4;;;2;;
51194;SDS011;37259;49.972;19.850;2024-03-29T01:27:16;4.4;;;2;;
51194;SDS011;37259;49.972;19.850;2024-03-29T01:28:16;4.4;;;2;;
51194;SDS011;37259;49.972;19.850;2024-03-29T01:29:16;4.4;;;2;;
51194;SDS011;37259;49.972;19.850;2024-03-29T01:30:16;4.4;;;2;;
51194;SDS011;37259;49.972;19.850;2024-03-29T01:31:16;4.4;;;2;;
51194;SDS011;37259;49.972;19.850;2024-03-29T01:32:16;4.4;;;2;;
51194;SDS011;37259;49.972;19.850;2024-03-29T01:33:16;4.4;;;2;;
51194;SDS011;37259;49.972;19.850;2024-03-29T01:34:16;4.4;;;2;;
51194;SDS011;37259;49.972;19.850;2024-03-29T01:35:16;4.4;;;2;;
51194;SDS011;37259;49.972;19.850;2024-03-29T01:36:16;4.4;;;2;;
51194;SDS011;37259;49.972;19.850;2024-03-29T01:37:16;4.4;;;2;;
51194;SDS011;37259;49.972;19.850;2024-03-29T01:38:16;4.4;;;2;;
51194;SDS011;37259;49.972;19.850;2024-03-29T01:39:16;4.4;;;2;;
51194;SDS011;37259;49.972;19.850;2024-03-29T01:40:17;4.4;;;2;;
51194;SDS011;37259;49.972;19.850;2024-03-29T01:41:16;4.4;;;2;;
51194;SDS011;37259;49.972;19.850;2024-03-29T01:42:16;4.4;;;2;;
51194;SDS011;37259;49.972;19.850;2024-03-29T01:43:16;4.4;;;2;;
51194;SDS011;37259;49.972;19.850;2024-03-29T01:44:16;4.4;;;2;;
51194;SDS011;37259;49.972;19.850;2024-03-29T01:45:16;4.4;;;2;;
51194;SDS011;37259;49.972;19.850;2024-03-29T01:46:17;4.4;;;2;;
51194;SDS011;37259;49.972;19.850;2024-03-29T01:47:16;4.4;;;2;;
51194;SDS011;37259;49.972;19.850;2024-03-29T01:48:17;7.7;;;3.4;;
51194;SDS011;37259;49.972;19.850;2024-03-29T01:49:16;7.7;;;3.4;;
51194;SDS011;37259;49.972;19.850;2024-03-29T01:50:16;7.7;;;3.4;;
51194;SDS011;37259;49.972;19.850;2024-03-29T01:51:17;7.7;;;3.4;;
51194;SDS011;37259;49.972;19.850;2024-03-29T01:52:16;7.7;;;3.4;;
51194;SDS011;37259;49.972;19.850;2024-03-29T01:53:17;7.7;;;3.4;;
51194;SDS011;37259;49.972;19.850;2024-03-29T01:54:16;7.7;;;3.4;;
51194;SDS011;37259;49.972;19.850;2024-03-29T01:55:16;7.7;;;3.4;;
51194;SDS011;37259;49.972;19.850;2024-03-29T01:56:16;7.7;;;3.4;;
51194;SDS011;37259;49.972;19.850;2024-03-29T01:57:16;7.7;;;3.4;;
51194;SDS011;37259;49.972;19.850;2024-03-29T01:58:16;7.7;;;3.4;;
51194;SDS011;37259;49.972;19.850;2024-03-29T01:59:16;7.7;;;3.4;;
51194;SDS011;37259;49.972;19.850;2024-03-29T02:00:17;7.7;;;3.4;;
51194;SDS011;37259;49.972;19.850;2024-03-29T02:01:17;7.7;;;3.4;;
51194;SDS011;37259;49.972;19.850;2024-03-29T02:02:17;7.7;;;3.4;;
51194;SDS011;37259;49.972;19.850;2024-03-29T02:03:16;7.7;;;3.4;;
51194;SDS011;37259;49.972;19.850;2024-03-29T02:04:16;7.7;;;3.4;;
51194;SDS011;37259;49.972;19.850;2024-03-29T02:05:17;7.7;;;3.4;;
51194;SDS011;37259;49.972;19.850;2024-03-29T02:06:16;7.7;;;3.4;;
51194;SDS011;37259;49.972;19.850;2024-03-29T02:07:16;7.7;;;3.4;;
51194;SDS011;37259;49.972;19.850;2024-03-29T02:08:17;7.7;;;3.4;;
51194;SDS011;37259;49.972;19.850;2024-03-29T02:09:16;7.7;;;3.4;;
51194;SDS011;37259;49.972;19.850;2024-03-29T02:10:16;7.7;;;3.4;;
51194;SDS011;37259;49.972;19.850;2024-03-29T02:11:16;7.7;;;3.4;;
51194;SDS011;37259;49.972;19.850;2024-03-29T02:12:16;7.7;;;3.4;;
51194;SDS011;37259;49.972;19.850;2024-03-29T02:13:16;7.7;;;3.4;;
51194;SDS011;37259;49.972;19.850;2024-03-29T02:14:16;7.7;;;3.4;;
51194;SDS011;37259;49.972;19.850;2024-03-29T02:15:16;7.7;;;3.4;;
51194;SDS011;37259;49.972;19.850;2024-03-29T02:16:16;7.7;;;3.4;;
51194;SDS011;37259;49.972;19.850;2024-03-29T02:17:16;7.7;;;3.4;;
51194;SDS011;37259;49.972;19.850;2024-03-29T02:18:16;4.7;;;2.6;;
51194;SDS011;37259;49.972;19.850;2024-03-29T02:19:16;4.7;;;2.6;;
51194;SDS011;37259;49.972;19.850;2024-03-29T02:20:16;4.7;;;2.6;;
51194;SDS011;37259;49.972;19.850;2024-03-29T02:21:16;4.7;;;2.6;;
51194;SDS011;37259;49.972;19.850;2024-03-29T02:22:16;4.7;;;2.6;;
51194;SDS011;37259;49.972;19.850;2024-03-29T02:23:18;4.7;;;2.6;;
51194;SDS011;37259;49.972;19.850;2024-03-29T02:24:16;4.7;;;2.6;;
51194;SDS011;37259;49.972;19.850;2024-03-29T02:25:16;4.7;;;2.6;;
51194;SDS011;37259;49.972;19.850;2024-03-29T02:26:17;4.7;;;2.6;;
51194;SDS011;37259;49.972;19.850;2024-03-29T02:27:17;4.7;;;2.6;;
51194;SDS011;37259;49.972;19.850;2024-03-29T02:28:16;4.7;;;2.6;;
51194;SDS011;37259;49.972;19.850;2024-03-29T02:29:16;4.7;;;2.6;;
51194;SDS011;37259;49.972;19.850;2024-03-29T02:30:17;4.7;;;2.6;;
51194;SDS011;37259;49.972;19.850;2024-03-29T02:31:17;4.7;;;2.6;;
51194;SDS011;37259;49.972;19.850;2024-03-29T02:32:16;4.7;;;2.6;;
51194;SDS011;37259;49.972;19.850;2024-03-29T02:33:17;4.7;;;2.6;;
51194;SDS011;37259;49.972;19.850;2024-03-29T02:34:16;4.7;;;2.6;;
51194;SDS011;37259;49.972;19.850;2024-03-29T02:35:17;4.7;;;2.6;;
51194;SDS011;37259;49.972;19.850;2024-03-29T02:36:16;4.7;;;2.6;;
51194;SDS011;37259;49.972;19.850;2024-03-29T02:37:16;4.7;;;2.6;;
51194;SDS011;37259;49.972;19.850;2024-03-29T02:38:16;4.7;;;2.6;;
51194;SDS011;37259;49.972;19.850;2024-03-29T02:39:16;4.7;;;2.6;;
51194;SDS011;37259;49.972;19.850;2024-03-29T02:40:17;4.7;;;2.6;;
51194;SDS011;37259;49.972;19.850;2024-03-29T02:41:16;4.7;;;2.6;;
51194;SDS011;37259;49.972;19.850;2024-03-29T02:42:16;4.7;;;2.6;;
51194;SDS011;37259;49.972;19.850;2024-03-29T02:43:16;4.7;;;2.6;;
51194;SDS011;37259;49.972;19.850;2024-03-29T02:44:16;4.7;;;2.6;;
51194;SDS011;37259;49.972;19.850;2024-03-29T02:45:17;4.7;;;2.6;;
51194;SDS011;37259;49.972;19.850;2024-03-29T02:46:16;4.7;;;2.6;;
51194;SDS011;37259;49.972;19.850;2024-03-29T02:47:16;4.7;;;2.6;;
51194;SDS011;37259;49.972;19.850;2024-03-29T02:48:16;2.5;;;1.1;;
51194;SDS011;37259;49.972;19.850;2024-03-29T02:49:16;2.5;;;1.1;;
51194;SDS011;37259;49.972;19.850;2024-03-29T02:50:17;2.5;;;1.1;;
51194;SDS011;37259;49.972;19.850;2024-03-29T02:51:17;2.5;;;1.1;;
51194;SDS011;37259;49.972;19.850;2024-03-29T02:52:16;2.5;;;1.1;;
51194;SDS011;37259;49.972;19.850;2024-03-29T02:53:16;2.5;;;1.1;;
51194;SDS011;37259;49.972;19.850;2024-03-29T02:54:17;2.5;;;1.1;;
51194;SDS011;37259;49.972;19.850;2024-03-29T02:55:16;2.5;;;1.1;;
51194;SDS011;37259;49.972;19.850;2024-03-29T02:56:17;2.5;;;1.1;;
51194;SDS011;37259;49.972;19.850;2024-03-29T02:57:16;2.5;;;1.1;;
51194;SDS011;37259;49.972;19.850;2024-03-29T02:58:17;2.5;;;1.1;;
51194;SDS011;37259;49.972;19.850;2024-03-29T02:59:16;2.5;;;1.1;;
51194;SDS011;37259;49.972;19.850;2024-03-29T03:00:16;2.5;;;1.1;;
51194;SDS011;37259;49.972;19.850;2024-03-29T03:01:16;2.5;;;1.1;;
51194;SDS011;37259;49.972;19.850;2024-03-29T03:02:16;2.5;;;1.1;;
51194;SDS011;37259;49.972;19.850;2024-03-29T03:03:17;2.5;;;1.1;;
51194;SDS011;37259;49.972;19.850;2024-03-29T03:04:16;2.5;;;1.1;;
51194;SDS011;37259;49.972;19.850;2024-03-29T03:05:16;2.5;;;1.1;;
51194;SDS011;37259;49.972;19.850;2024-03-29T03:06:17;2.5;;;1.1;;
51194;SDS011;37259;49.972;19.850;2024-03-29T03:07:17;2.5;;;1.1;;
51194;SDS011;37259;49.972;19.850;2024-03-29T03:08:16;2.5;;;1.1;;
51194;SDS011;37259;49.972;19.850;2024-03-29T03:09:17;2.5;;;1.1;;
51194;SDS011;37259;49.972;19.850;2024-03-29T03:10:17;2.5;;;1.1;;
51194;SDS011;37259;49.972;19.850;2024-03-29T03:11:17;2.5;;;1.1;;
51194;SDS011;37259;49.972;19.850;2024-03-29T03:12:17;2.5;;;1.1;;
51194;SDS011;37259;49.972;19.850;2024-03-29T03:13:17;2.5;;;1.1;;
51194;SDS011;37259;49.972;19.850;2024-03-29T03:14:16;2.5;;;1.1;;
51194;SDS011;37259;49.972;19.850;2024-03-29T03:15:17;2.5;;;1.1;;
51194;SDS011;37259;49.972;19.850;2024-03-29T03:16:17;2.5;;;1.1;;
51194;SDS011;37259;49.972;19.850;2024-03-29T03:17:16;1.7;;;0.9;;
51194;SDS011;37259;49.972;19.850;2024-03-29T03:18:17;1.7;;;0.9;;
51194;SDS011;37259;49.972;19.850;2024-03-29T03:19:16;1.7;;;0.9;;
51194;SDS011;37259;49.972;19.850;2024-03-29T03:20:16;1.7;;;0.9;;
51194;SDS011;37259;49.972;19.850;2024-03-29T03:21:16;1.7;;;0.9;;
51194;SDS011;37259;49.972;19.850;2024-03-29T03:22:17;1.7;;;0.9;;
51194;SDS011;37259;49.972;19.850;2024-03-29T03:23:17;1.7;;;0.9;;
51194;SDS011;37259;49.972;19.850;2024-03-29T03:24:17;1.7;;;0.9;;
51194;SDS011;37259;49.972;19.850;2024-03-29T03:25:17;1.7;;;0.9;;
51194;SDS011;37259;49.972;19.850;2024-03-29T03:26:17;1.7;;;0.9;;
51194;SDS011;37259;49.972;19.850;2024-03-29T03:27:17;1.7;;;0.9;;
51194;SDS011;37259;49.972;19.850;2024-03-29T03:28:17;1.7;;;0.9;;
51194;SDS011;37259;49.972;19.850;2024-03-29T03:29:16;1.7;;;0.9;;
51194;SDS011;37259;49.972;19.850;2024-03-29T03:30:17;1.7;;;0.9;;
51194;SDS011;37259;49.972;19.850;2024-03-29T03:31:17;1.7;;;0.9;;
51194;SDS011;37259;49.972;19.850;2024-03-29T03:32:17;1.7;;;0.9;;
51194;SDS011;37259;49.972;19.850;2024-03-29T03:33:17;1.7;;;0.9;;
51194;SDS011;37259;49.972;19.850;2024-03-29T03:34:17;1.7;;;0.9;;
51194;SDS011;37259;49.972;19.850;2024-03-29T03:35:16;1.7;;;0.9;;
51194;SDS011;37259;49.972;19.850;2024-03-29T03:36:17;1.7;;;0.9;;
51194;SDS011;37259;49.972;19.850;2024-03-29T03:37:16;1.7;;;0.9;;
51194;SDS011;37259;49.972;19.850;2024-03-29T03:38:17;1.7;;;0.9;;
51194;SDS011;37259;49.972;19.850;2024-03-29T03:39:16;1.7;;;0.9;;
51194;SDS011;37259;49.972;19.850;2024-03-29T03:40:17;1.7;;;0.9;;
51194;SDS011;37259;49.972;19.850;2024-03-29T03:41:17;1.7;;;0.9;;
51194;SDS011;37259;49.972;19.850;2024-03-29T03:42:17;1.7;;;0.9;;
51194;SDS011;37259;49.972;19.850;2024-03-29T03:43:17;1.7;;;0.9;;
51194;SDS011;37259;49.972;19.850;2024-03-29T03:44:17;1.7;;;0.9;;
51194;SDS011;37259;49.972;19.850;2024-03-29T03:45:17;1.7;;;0.9;;
51194;SDS011;37259;49.972;19.850;2024-03-29T03:46:17;1.7;;;0.9;;
51194;SDS011;37259;49.972;19.850;2024-03-29T03:47:17;3.9;;;1.2;;
51194;SDS011;37259;49.972;19.850;2024-03-29T03:48:17;3.9;;;1.2;;
51194;SDS011;37259;49.972;19.850;2024-03-29T03:49:16;3.9;;;1.2;;
51194;SDS011;37259;49.972;19.850;2024-03-29T03:50:17;3.9;;;1.2;;
51194;SDS011;37259;49.972;19.850;2024-03-29T03:51:17;3.9;;;1.2;;
51194;SDS011;37259;49.972;19.850;2024-03-29T03:52:17;3.9;;;1.2;;
51194;SDS011;37259;49.972;19.850;2024-03-29T03:53:17;3.9;;;1.2;;
51194;SDS011;37259;49.972;19.850;2024-03-29T03:54:17;3.9;;;1.2;;
51194;SDS011;37259;49.972;19.850;2024-03-29T03:55:16;3.9;;;1.2;;
51194;SDS011;37259;49.972;19.850;2024-03-29T03:56:16;3.9;;;1.2;;
51194;SDS011;37259;49.972;19.850;2024-03-29T03:57:16;3.9;;;1.2;;
51194;SDS011;37259;49.972;19.850;2024-03-29T03:58:16;3.9;;;1.2;;
51194;SDS011;37259;49.972;19.850;2024-03-29T03:59:17;3.9;;;1.2;;
51194;SDS011;37259;49.972;19.850;2024-03-29T04:00:17;3.9;;;1.2;;
51194;SDS011;37259;49.972;19.850;2024-03-29T04:01:17;3.9;;;1.2;;
51194;SDS011;37259;49.972;19.850;2024-03-29T04:02:17;3.9;;;1.2;;
51194;SDS011;37259;49.972;19.850;2024-03-29T04:03:17;3.9;;;1.2;;
51194;SDS011;37259;49.972;19.850;2024-03-29T04:04:16;3.9;;;1.2;;
51194;SDS011;37259;49.972;19.850;2024-03-29T04:05:17;3.9;;;1.2;;
51194;SDS011;37259;49.972;19.850;2024-03-29T04:06:17;3.9;;;1.2;;
51194;SDS011;37259;49.972;19.850;2024-03-29T04:07:16;3.9;;;1.2;;
51194;SDS011;37259;49.972;19.850;2024-03-29T04:08:17;3.9;;;1.2;;
51194;SDS011;37259;49.972;19.850;2024-03-29T04:09:16;3.9;;;1.2;;
51194;SDS011;37259;49.972;19.850;2024-03-29T04:10:17;3.9;;;1.2;;
51194;SDS011;37259;49.972;19.850;2024-03-29T04:11:17;3.9;;;1.2;;
51194;SDS011;37259;49.972;19.850;2024-03-29T04:12:17;3.9;;;1.2;;
51194;SDS011;37259;49.972;19.850;2024-03-29T04:13:18;3.9;;;1.2;;
51194;SDS011;37259;49.972;19.850;2024-03-29T04:14:17;3.9;;;1.2;;
51194;SDS011;37259;49.972;19.850;2024-03-29T04:15:17;3.9;;;1.2;;
51194;SDS011;37259;49.972;19.850;2024-03-29T04:16:17;3.9;;;1.2;;
51194;SDS011;37259;49.972;19.850;2024-03-29T04:17:16;2.1;;;0.9;;
51194;SDS011;37259;49.972;19.850;2024-03-29T04:18:17;2.1;;;0.9;;
51194;SDS011;37259;49.972;19.850;2024-03-29T04:19:16;2.1;;;0.9;;
51194;SDS011;37259;49.972;19.850;2024-03-29T04:20:17;2.1;;;0.9;;
51194;SDS011;37259;49.972;19.850;2024-03-29T04:21:17;2.1;;;0.9;;
51194;SDS011;37259;49.972;19.850;2024-03-29T04:22:17;2.1;;;0.9;;
51194;SDS011;37259;49.972;19.850;2024-03-29T04:23:17;2.1;;;0.9;;
51194;SDS011;37259;49.972;19.850;2024-03-29T04:24:17;2.1;;;0.9;;
51194;SDS011;37259;49.972;19.850;2024-03-29T04:25:17;2.1;;;0.9;;
51194;SDS011;37259;49.972;19.850;2024-03-29T04:26:16;2.1;;;0.9;;
51194;SDS011;37259;49.972;19.850;2024-03-29T04:27:17;2.1;;;0.9;;
51194;SDS011;37259;49.972;19.850;2024-03-29T04:28:16;2.1;;;0.9;;
51194;SDS011;37259;49.972;19.850;2024-03-29T04:29:16;2.1;;;0.9;;
51194;SDS011;37259;49.972;19.850;2024-03-29T04:30:17;2.1;;;0.9;;
51194;SDS011;37259;49.972;19.850;2024-03-29T04:31:17;2.1;;;0.9;;
51194;SDS011;37259;49.972;19.850;2024-03-29T04:32:16;2.1;;;0.9;;
51194;SDS011;37259;49.972;19.850;2024-03-29T04:33:17;2.1;;;0.9;;
51194;SDS011;37259;49.972;19.850;2024-03-29T04:34:17;2.1;;;0.9;;
51194;SDS011;37259;49.972;19.850;2024-03-29T04:35:17;2.1;;;0.9;;
51194;SDS011;37259;49.972;19.850;2024-03-29T04:36:17;2.1;;;0.9;;
51194;SDS011;37259;49.972;19.850;2024-03-29T04:37:17;2.1;;;0.9;;
51194;SDS011;37259;49.972;19.850;2024-03-29T04:38:17;2.1;;;0.9;;
51194;SDS011;37259;49.972;19.850;2024-03-29T04:39:17;2.1;;;0.9;;
51194;SDS011;37259;49.972;19.850;2024-03-29T04:40:16;2.1;;;0.9;;
51194;SDS011;37259;49.972;19.850;2024-03-29T04:41:17;2.1;;;0.9;;
51194;SDS011;37259;49.972;19.850;2024-03-29T04:42:17;2.1;;;0.9;;
51194;SDS011;37259;49.972;19.850;2024-03-29T04:43:17;2.1;;;0.9;;
51194;SDS011;37259;49.972;19.850;2024-03-29T04:44:22;2.1;;;0.9;;
51194;SDS011;37259;49.972;19.850;2024-03-29T04:45:17;2.1;;;0.9;;
51194;SDS011;37259;49.972;19.850;2024-03-29T04:46:17;2.1;;;0.9;;
51194;SDS011;37259;49.972;19.850;2024-03-29T04:47:17;1.9;;;0.7;;
51194;SDS011;37259;49.972;19.850;2024-03-29T04:48:17;1.9;;;0.7;;
51194;SDS011;37259;49.972;19.850;2024-03-29T04:49:18;1.9;;;0.7;;
51194;SDS011;37259;49.972;19.850;2024-03-29T04:50:17;1.9;;;0.7;;
51194;SDS011;37259;49.972;19.850;2024-03-29T04:51:17;1.9;;;0.7;;
51194;SDS011;37259;49.972;19.850;2024-03-29T04:52:17;1.9;;;0.7;;
51194;SDS011;37259;49.972;19.850;2024-03-29T04:53:17;1.9;;;0.7;;
51194;SDS011;37259;49.972;19.850;2024-03-29T04:54:17;1.9;;;0.7;;
51194;SDS011;37259;49.972;19.850;2024-03-29T04:55:17;1.9;;;0.7;;
51194;SDS011;37259;49.972;19.850;2024-03-29T04:56:17;1.9;;;0.7;;
51194;SDS011;37259;49.972;19.850;2024-03-29T04:57:17;1.9;;;0.7;;
51194;SDS011;37259;49.972;19.850;2024-03-29T04:58:16;1.9;;;0.7;;
51194;SDS011;37259;49.972;19.850;2024-03-29T04:59:16;1.9;;;0.7;;
51194;SDS011;37259;49.972;19.850;2024-03-29T05:00:17;1.9;;;0.7;;
51194;SDS011;37259;49.972;19.850;2024-03-29T05:01:17;1.9;;;0.7;;
51194;SDS011;37259;49.972;19.850;2024-03-29T05:02:16;1.9;;;0.7;;
51194;SDS011;37259;49.972;19.850;2024-03-29T05:03:17;1.9;;;0.7;;
51194;SDS011;37259;49.972;19.850;2024-03-29T05:04:17;1.9;;;0.7;;
51194;SDS011;37259;49.972;19.850;2024-03-29T05:05:17;1.9;;;0.7;;
51194;SDS011;37259;49.972;19.850;2024-03-29T05:06:17;1.9;;;0.7;;
51194;SDS011;37259;49.972;19.850;2024-03-29T05:07:17;1.9;;;0.7;;
51194;SDS011;37259;49.972;19.850;2024-03-29T05:08:17;1.9;;;0.7;;
51194;SDS011;37259;49.972;19.850;2024-03-29T05:09:17;1.9;;;0.7;;
51194;SDS011;37259;49.972;19.850;2024-03-29T05:10:17;1.9;;;0.7;;
51194;SDS011;37259;49.972;19.850;2024-03-29T05:11:17;1.9;;;0.7;;
51194;SDS011;37259;49.972;19.850;2024-03-29T05:12:17;1.9;;;0.7;;
51194;SDS011;37259;49.972;19.850;2024-03-29T05:13:17;1.9;;;0.7;;
51194;SDS011;37259;49.972;19.850;2024-03-29T05:14:17;1.9;;;0.7;;
51194;SDS011;37259;49.972;19.850;2024-03-29T05:15:17;1.9;;;0.7;;
51194;SDS011;37259;49.972;19.850;2024-03-29T05:16:17;1.9;;;0.7;;
51194;SDS011;37259;49.972;19.850;2024-03-29T05:17:17;2;;;0.7;;
51194;SDS011;37259;49.972;19.850;2024-03-29T05:18:17;2;;;0.7;;
51194;SDS011;37259;49.972;19.850;2024-03-29T05:19:16;2;;;0.7;;
51194;SDS011;37259;49.972;19.850;2024-03-29T05:20:17;2;;;0.7;;
51194;SDS011;37259;49.972;19.850;2024-03-29T05:21:16;2;;;0.7;;
51194;SDS011;37259;49.972;19.850;2024-03-29T05:22:17;2;;;0.7;;
51194;SDS011;37259;49.972;19.850;2024-03-29T05:23:17;2;;;0.7;;
51194;SDS011;37259;49.972;19.850;2024-03-29T05:24:17;2;;;0.7;;
51194;SDS011;37259;49.972;19.850;2024-03-29T05:25:17;2;;;0.7;;
51194;SDS011;37259;49.972;19.850;2024-03-29T05:26:17;2;;;0.7;;
51194;SDS011;37259;49.972;19.850;2024-03-29T05:27:17;2;;;0.7;;
51194;SDS011;37259;49.972;19.850;2024-03-29T05:28:16;2;;;0.7;;
51194;SDS011;37259;49.972;19.850;2024-03-29T05:29:16;2;;;0.7;;
51194;SDS011;37259;49.972;19.850;2024-03-29T05:30:17;2;;;0.7;;
51194;SDS011;37259;49.972;19.850;2024-03-29T05:31:17;2;;;0.7;;
51194;SDS011;37259;49.972;19.850;2024-03-29T05:32:16;2;;;0.7;;
51194;SDS011;37259;49.972;19.850;2024-03-29T05:33:17;2;;;0.7;;
51194;SDS011;37259;49.972;19.850;2024-03-29T05:34:17;2;;;0.7;;
51194;SDS011;37259;49.972;19.850;2024-03-29T05:35:17;2;;;0.7;;
51194;SDS011;37259;49.972;19.850;2024-03-29T05:36:17;2;;;0.7;;
51194;SDS011;37259;49.972;19.850;2024-03-29T05:37:17;2;;;0.7;;
51194;SDS011;37259;49.972;19.850;2024-03-29T05:38:17;2;;;0.7;;
51194;SDS011;37259;49.972;19.850;2024-03-29T05:39:17;2;;;0.7;;
51194;SDS011;37259;49.972;19.850;2024-03-29T05:40:17;2;;;0.7;;
51194;SDS011;37259;49.972;19.850;2024-03-29T05:41:17;2;;;0.7;;
51194;SDS011;37259;49.972;19.850;2024-03-29T05:42:17;2;;;0.7;;
51194;SDS011;37259;49.972;19.850;2024-03-29T05:43:17;2;;;0.7;;
51194;SDS011;37259;49.972;19.850;2024-03-29T05:44:17;2;;;0.7;;
51194;SDS011;37259;49.972;19.850;2024-03-29T05:45:22;2;;;0.7;;
51194;SDS011;37259;49.972;19.850;2024-03-29T05:46:17;2;;;0.7;;
51194;SDS011;37259;49.972;19.850;2024-03-29T05:47:17;2.7;;;1;;
51194;SDS011;37259;49.972;19.850;2024-03-29T05:48:17;2.7;;;1;;
51194;SDS011;37259;49.972;19.850;2024-03-29T05:49:17;2.7;;;1;;
51194;SDS011;37259;49.972;19.850;2024-03-29T05:50:17;2.7;;;1;;
51194;SDS011;37259;49.972;19.850;2024-03-29T05:51:17;2.7;;;1;;
51194;SDS011;37259;49.972;19.850;2024-03-29T05:52:17;2.7;;;1;;
51194;SDS011;37259;49.972;19.850;2024-03-29T05:53:17;2.7;;;1;;
51194;SDS011;37259;49.972;19.850;2024-03-29T05:54:17;2.7;;;1;;
51194;SDS011;37259;49.972;19.850;2024-03-29T05:55:17;2.7;;;1;;
51194;SDS011;37259;49.972;19.850;2024-03-29T05:56:17;2.7;;;1;;
51194;SDS011;37259;49.972;19.850;2024-03-29T05:57:17;2.7;;;1;;
51194;SDS011;37259;49.972;19.850;2024-03-29T05:58:17;2.7;;;1;;
51194;SDS011;37259;49.972;19.850;2024-03-29T05:59:17;2.7;;;1;;
51194;SDS011;37259;49.972;19.850;2024-03-29T06:00:17;2.7;;;1;;
51194;SDS011;37259;49.972;19.850;2024-03-29T06:01:17;2.7;;;1;;
51194;SDS011;37259;49.972;19.850;2024-03-29T06:02:16;2.7;;;1;;
51194;SDS011;37259;49.972;19.850;2024-03-29T06:03:17;2.7;;;1;;
51194;SDS011;37259;49.972;19.850;2024-03-29T06:04:17;2.7;;;1;;
51194;SDS011;37259;49.972;19.850;2024-03-29T06:05:17;2.7;;;1;;
51194;SDS011;37259;49.972;19.850;2024-03-29T06:06:17;2.7;;;1;;
51194;SDS011;37259;49.972;19.850;2024-03-29T06:07:17;2.7;;;1;;
51194;SDS011;37259;49.972;19.850;2024-03-29T06:08:17;2.7;;;1;;
51194;SDS011;37259;49.972;19.850;2024-03-29T06:09:16;2.7;;;1;;